Time;durP1;ratioP1;P1;durP2;ratioP2;P2;SDS_P1;SDS_P2;PMS_P1;PMS_P2;Temp;Humidity;BMP_temperature;BMP_pressure;BME280_temperature;BME280_humidity;BME280_pressure;Samples;Min_cycle;Max_cycle;Signal;HPM_P1;HPM_P2
2021/05/16 00:02:22;;;;;;;6.63;2.03;;;10.50;99.90;;;;;;4956931;28;20027;-68
2021/05/16 00:04:47;;;;;;;5.90;2.40;;;10.50;99.90;;;;;;4974873;28;20101;-66
2021/05/16 00:07:13;;;;;;;5.75;2.58;;;10.50;99.90;;;;;;4957215;28;20031;-66
2021/05/16 00:09:40;;;;;;;7.25;2.30;;;10.50;99.90;;;;;;4974812;28;20087;-64
2021/05/16 00:12:06;;;;;;;4.88;2.17;;;10.50;99.90;;;;;;4941206;28;20039;-66
2021/05/16 00:14:32;;;;;;;6.18;2.47;;;10.50;99.90;;;;;;4974838;28;20089;-65
2021/05/16 00:16:58;;;;;;;5.60;2.50;;;10.40;99.90;;;;;;4956883;28;20031;-68
2021/05/16 00:19:24;;;;;;;3.80;2.60;;;10.40;99.90;;;;;;4975213;28;20027;-67
2021/05/16 00:21:51;;;;;;;6.57;2.40;;;10.50;99.90;;;;;;4956928;28;20038;-64
2021/05/16 00:24:17;;;;;;;2.88;2.47;;;10.50;99.90;;;;;;4975103;28;20046;-65
2021/05/16 00:26:43;;;;;;;4.03;2.50;;;10.50;99.90;;;;;;4976424;28;20035;-65
2021/05/16 00:29:10;;;;;;;4.15;2.58;;;10.40;99.90;;;;;;4975106;28;20023;-65
2021/05/16 00:31:35;;;;;;;7.57;2.50;;;10.30;99.90;;;;;;4958954;28;20089;-65
2021/05/16 00:34:01;;;;;;;6.95;2.97;;;10.30;99.90;;;;;;4958892;28;20058;-70
2021/05/16 00:36:27;;;;;;;10.25;2.80;;;10.40;99.90;;;;;;4978254;28;20069;-65
2021/05/16 00:38:56;;;;;;;7.57;2.70;;;10.40;99.90;;;;;;4976271;28;20050;-78
2021/05/16 00:41:22;;;;;;;13.15;3.03;;;10.40;99.90;;;;;;4974394;28;20117;-67
2021/05/16 00:43:47;;;;;;;4.60;2.78;;;10.40;99.90;;;;;;4977683;28;20041;-64
2021/05/16 00:46:13;;;;;;;7.95;3.22;;;10.30;99.90;;;;;;4978717;28;20031;-67
2021/05/16 00:48:39;;;;;;;8.20;2.65;;;10.30;99.90;;;;;;4959645;28;20023;-66
2021/05/16 00:51:05;;;;;;;5.50;2.05;;;10.40;99.90;;;;;;4957728;28;20035;-65
2021/05/16 00:53:31;;;;;;;7.97;2.17;;;10.30;99.90;;;;;;4975418;28;20101;-64
2021/05/16 00:55:57;;;;;;;5.40;2.58;;;10.20;99.90;;;;;;4974853;28;20097;-65
2021/05/16 00:58:25;;;;;;;5.57;1.90;;;10.30;99.90;;;;;;4956299;28;20428;-64
2021/05/16 01:00:51;;;;;;;5.10;2.00;;;10.30;99.90;;;;;;4973337;28;20039;-65
2021/05/16 01:03:17;;;;;;;4.88;2.20;;;10.30;99.90;;;;;;4955729;28;20038;-65
2021/05/16 01:05:43;;;;;;;9.00;3.03;;;10.40;99.90;;;;;;4973662;28;20062;-65
2021/05/16 01:08:10;;;;;;;6.38;2.17;;;10.40;99.90;;;;;;4955356;28;20193;-65
2021/05/16 01:10:36;;;;;;;10.90;2.65;;;10.40;99.90;;;;;;4974185;28;20093;-65
2021/05/16 01:13:08;;;;;;;8.05;2.30;;;10.40;99.90;;;;;;4975378;28;20027;-65
2021/05/16 01:15:36;;;;;;;5.30;2.30;;;10.30;99.90;;;;;;4958942;28;20365;-65
2021/05/16 01:18:02;;;;;;;4.47;1.90;;;10.30;99.90;;;;;;4958186;28;20031;-65
2021/05/16 01:20:31;;;;;;;4.60;2.42;;;10.40;99.90;;;;;;4958247;28;20046;-65
2021/05/16 01:23:33;;;;;;;4.82;2.22;;;10.30;99.90;;;;;;4958200;28;20034;-64
2021/05/16 01:26:00;;;;;;;6.25;2.83;;;10.30;99.90;;;;;;4936981;29;20059;-64
2021/05/16 01:28:26;;;;;;;9.07;2.72;;;10.20;99.90;;;;;;4936294;29;20130;-65
2021/05/16 01:30:53;;;;;;;8.77;2.53;;;10.30;99.90;;;;;;4937355;29;20066;-67
2021/05/16 01:33:19;;;;;;;4.40;2.53;;;10.30;99.90;;;;;;4934798;29;20024;-65
2021/05/16 01:35:45;;;;;;;6.85;2.72;;;10.40;99.90;;;;;;4932898;29;20036;-65
2021/05/16 01:38:12;;;;;;;7.38;2.50;;;10.40;99.90;;;;;;4932687;29;20031;-66
2021/05/16 01:40:39;;;;;;;7.75;2.58;;;10.40;99.90;;;;;;4934464;29;20091;-66
2021/05/16 01:43:13;;;;;;;6.03;2.85;;;10.40;99.90;;;;;;4933603;29;20177;-65
2021/05/16 01:45:41;;;;;;;7.00;2.30;;;10.40;99.90;;;;;;4934952;29;20027;-65
2021/05/16 01:48:07;;;;;;;3.90;2.08;;;10.40;99.90;;;;;;4932564;29;20083;-66
2021/05/16 01:50:35;;;;;;;4.45;2.22;;;10.30;99.90;;;;;;4934159;29;20087;-65
2021/05/16 01:53:03;;;;;;;7.95;2.30;;;10.40;99.90;;;;;;4933310;29;20024;-66
2021/05/16 01:55:29;;;;;;;9.25;1.88;;;10.40;99.90;;;;;;4933915;29;20054;-65
2021/05/16 01:57:55;;;;;;;12.77;3.92;;;10.30;99.90;;;;;;4934842;29;20458;-65
2021/05/16 02:00:53;;;;;;;6.68;2.00;;;10.40;99.90;;;;;;4932514;29;20031;-66
2021/05/16 02:03:20;;;;;;;7.65;2.13;;;10.50;99.90;;;;;;4900843;29;20040;-64
2021/05/16 02:05:49;;;;;;;6.25;2.20;;;10.50;99.90;;;;;;4934666;29;20032;-65
2021/05/16 02:08:16;;;;;;;8.23;1.83;;;10.40;99.90;;;;;;4933888;29;20492;-65
2021/05/16 02:10:42;;;;;;;4.45;1.77;;;10.50;99.90;;;;;;4933942;29;20115;-64
2021/05/16 02:13:07;;;;;;;6.03;2.20;;;10.50;99.90;;;;;;4933872;29;20059;-64
2021/05/16 02:15:33;;;;;;;8.55;2.13;;;10.50;99.90;;;;;;4932842;29;20036;-65
2021/05/16 02:18:00;;;;;;;7.82;2.35;;;10.40;99.90;;;;;;4933523;29;20027;-81
2021/05/16 02:20:26;;;;;;;9.95;2.08;;;10.30;99.90;;;;;;4932739;29;20075;-65
2021/05/16 02:22:53;;;;;;;4.97;2.47;;;10.40;99.90;;;;;;4934048;29;20055;-64
2021/05/16 02:25:19;;;;;;;7.82;3.15;;;10.40;99.90;;;;;;4965553;28;20516;-64
2021/05/16 02:27:47;;;;;;;6.97;2.33;;;10.40;99.90;;;;;;4955086;28;20098;-65
2021/05/16 02:30:14;;;;;;;3.85;1.98;;;10.30;99.90;;;;;;4954240;28;20318;-65
2021/05/16 02:32:40;;;;;;;9.57;2.42;;;10.30;99.90;;;;;;4972525;28;20041;-65
2021/05/16 02:35:09;;;;;;;4.20;2.25;;;10.20;99.90;;;;;;4971809;28;20035;-65
2021/05/16 02:37:35;;;;;;;5.03;2.20;;;10.10;99.90;;;;;;4972783;28;20038;-65
2021/05/16 02:40:01;;;;;;;8.65;3.83;;;10.20;99.90;;;;;;4956003;28;20030;-66
2021/05/16 02:42:27;;;;;;;4.63;2.13;;;10.20;99.90;;;;;;4973377;28;20023;-65
2021/05/16 02:44:52;;;;;;;7.95;2.50;;;10.30;99.90;;;;;;4973238;28;20041;-65
2021/05/16 02:47:18;;;;;;;9.38;2.45;;;10.20;99.90;;;;;;4971600;28;20464;-65
2021/05/16 02:49:43;;;;;;;6.32;1.80;;;10.20;99.90;;;;;;4972739;28;20035;-65
2021/05/16 02:52:10;;;;;;;6.78;2.30;;;10.10;99.90;;;;;;4973960;28;20105;-66
2021/05/16 02:54:36;;;;;;;5.20;1.90;;;10.20;99.90;;;;;;4972835;28;20424;-65
2021/05/16 02:57:01;;;;;;;5.82;1.90;;;10.30;99.90;;;;;;4972642;28;20061;-72
2021/05/16 02:59:28;;;;;;;7.50;2.60;;;10.20;99.90;;;;;;4972683;28;20062;-65
2021/05/16 03:01:54;;;;;;;6.93;2.72;;;10.10;99.90;;;;;;4972776;28;20031;-67
2021/05/16 03:04:20;;;;;;;5.35;2.42;;;10.30;99.90;;;;;;4972566;28;20034;-65
2021/05/16 03:06:46;;;;;;;9.48;2.10;;;10.20;99.90;;;;;;4972383;28;20067;-65
2021/05/16 03:09:11;;;;;;;6.45;1.88;;;10.10;99.90;;;;;;4972443;28;20098;-66
2021/05/16 03:11:37;;;;;;;6.78;2.03;;;10.20;99.90;;;;;;4973051;28;20082;-64
2021/05/16 03:14:03;;;;;;;13.45;2.30;;;10.20;99.90;;;;;;4972249;28;20030;-69
2021/05/16 03:16:28;;;;;;;8.30;2.63;;;10.20;99.90;;;;;;4973383;28;20388;-70
2021/05/16 03:18:54;;;;;;;7.43;2.40;;;10.10;99.90;;;;;;4972183;28;20122;-65
2021/05/16 03:21:20;;;;;;;8.90;2.20;;;10.20;99.90;;;;;;4953643;28;20138;-64
2021/05/16 03:23:45;;;;;;;5.30;2.63;;;10.20;99.90;;;;;;4971159;28;20143;-65
2021/05/16 03:26:11;;;;;;;9.25;2.10;;;10.30;99.90;;;;;;4953956;28;20030;-64
2021/05/16 03:28:37;;;;;;;7.43;2.42;;;10.20;99.90;;;;;;4954215;28;20338;-65
2021/05/16 03:31:03;;;;;;;6.07;1.90;;;10.30;99.90;;;;;;4971604;28;20038;-76
2021/05/16 03:33:28;;;;;;;7.88;1.95;;;10.30;99.90;;;;;;4972238;28;20031;-65
2021/05/16 03:35:54;;;;;;;3.92;2.08;;;10.30;99.90;;;;;;4972207;28;20039;-65
2021/05/16 03:38:20;;;;;;;4.50;1.90;;;10.30;99.90;;;;;;4971184;28;20034;-65
2021/05/16 03:40:46;;;;;;;5.38;1.80;;;10.40;99.90;;;;;;4911343;29;20052;-65
2021/05/16 03:43:12;;;;;;;9.85;2.22;;;10.40;99.90;;;;;;4895690;29;20032;-65
2021/05/16 03:45:38;;;;;;;10.45;2.83;;;10.30;99.90;;;;;;4912333;29;20136;-65
2021/05/16 03:48:04;;;;;;;8.63;2.10;;;10.20;99.90;;;;;;4897111;29;20107;-65
2021/05/16 03:50:30;;;;;;;4.75;1.80;;;10.20;99.90;;;;;;4913814;29;20131;-68
2021/05/16 03:52:56;;;;;;;5.72;2.40;;;10.20;99.90;;;;;;4914812;29;20487;-67
2021/05/16 03:55:22;;;;;;;5.72;2.22;;;10.10;99.90;;;;;;4898674;29;20071;-65
2021/05/16 03:57:50;;;;;;;5.32;2.63;;;10.20;99.90;;;;;;4915738;29;20467;-68
2021/05/16 04:00:17;;;;;;;4.95;1.90;;;10.10;99.90;;;;;;4902558;29;20112;-68
2021/05/16 04:02:44;;;;;;;7.38;2.35;;;10.20;99.90;;;;;;4902011;29;20028;-65
2021/05/16 04:05:10;;;;;;;6.63;2.17;;;10.20;99.90;;;;;;4916945;29;20036;-65
2021/05/16 04:07:36;;;;;;;8.07;2.08;;;10.20;99.90;;;;;;4918682;29;20040;-65
2021/05/16 04:10:02;;;;;;;5.15;2.33;;;10.30;99.90;;;;;;4918901;29;20071;-65
2021/05/16 04:12:28;;;;;;;8.90;2.92;;;10.20;99.90;;;;;;4948582;28;20035;-65
2021/05/16 04:14:54;;;;;;;7.03;2.33;;;10.20;99.90;;;;;;4959839;28;20041;-67
2021/05/16 04:17:19;;;;;;;3.10;1.63;;;10.20;99.90;;;;;;4975706;28;20078;-66
2021/05/16 04:19:46;;;;;;;9.02;2.50;;;10.20;99.90;;;;;;4975720;28;20449;-66
2021/05/16 04:22:12;;;;;;;5.72;1.73;;;10.30;99.90;;;;;;4957785;28;20050;-66
2021/05/16 04:24:37;;;;;;;9.40;2.25;;;10.40;99.90;;;;;;4975603;28;20050;-66
2021/05/16 04:27:03;;;;;;;7.35;2.63;;;10.40;99.90;;;;;;4959670;28;20050;-66
2021/05/16 04:29:29;;;;;;;4.00;1.67;;;10.50;99.90;;;;;;4976891;28;20037;-66
2021/05/16 04:31:55;;;;;;;5.63;1.95;;;10.40;99.90;;;;;;4978087;28;20053;-65
2021/05/16 04:34:21;;;;;;;3.75;2.05;;;10.40;99.90;;;;;;4975739;28;20495;-64
2021/05/16 04:36:46;;;;;;;2.92;1.70;;;10.30;99.90;;;;;;4958640;28;20035;-66
2021/05/16 04:39:13;;;;;;;4.28;2.00;;;10.40;99.90;;;;;;4976715;28;20077;-66
2021/05/16 04:41:39;;;;;;;6.65;2.00;;;10.30;99.90;;;;;;4977631;28;20511;-66
2021/05/16 04:44:05;;;;;;;4.72;1.90;;;10.30;99.90;;;;;;4958699;28;20035;-66
2021/05/16 04:46:31;;;;;;;3.70;1.75;;;10.30;99.90;;;;;;4974745;28;20031;-65
2021/05/16 04:48:57;;;;;;;3.97;1.70;;;10.40;99.90;;;;;;4974611;28;20365;-66
2021/05/16 04:51:22;;;;;;;6.35;1.60;;;10.40;99.90;;;;;;4955959;28;20045;-65
2021/05/16 04:53:48;;;;;;;3.88;1.90;;;10.50;99.90;;;;;;4974174;28;20039;-65
2021/05/16 04:56:14;;;;;;;4.13;1.38;;;10.70;99.90;;;;;;4956514;28;20475;-65
2021/05/16 04:58:39;;;;;;;5.28;1.73;;;10.80;99.90;;;;;;4973900;28;20023;-65
2021/05/16 05:01:05;;;;;;;2.20;1.50;;;10.90;99.90;;;;;;4956498;28;20142;-66
2021/05/16 05:03:32;;;;;;;3.35;1.60;;;10.80;99.90;;;;;;4973727;28;20081;-67
2021/05/16 05:05:58;;;;;;;4.45;1.65;;;10.90;99.90;;;;;;4976619;28;20039;-66
2021/05/16 05:08:25;;;;;;;7.28;1.58;;;10.90;99.90;;;;;;4957918;28;20056;-66
2021/05/16 05:10:53;;;;;;;5.03;1.42;;;10.80;99.90;;;;;;4957278;28;20369;-65
2021/05/16 05:13:19;;;;;;;6.53;1.83;;;10.90;99.90;;;;;;4958087;28;20031;-66
2021/05/16 05:15:45;;;;;;;4.45;1.70;;;10.90;99.90;;;;;;4976328;28;20034;-68
2021/05/16 05:18:11;;;;;;;4.05;2.00;;;10.90;99.90;;;;;;4975948;28;20023;-67
2021/05/16 05:20:36;;;;;;;3.53;1.40;;;10.90;99.90;;;;;;4973575;28;20035;-65
2021/05/16 05:23:02;;;;;;;5.72;1.42;;;11.00;99.90;;;;;;4973524;28;20034;-64
2021/05/16 05:25:29;;;;;;;5.20;1.50;;;10.90;99.90;;;;;;4955650;28;20113;-65
2021/05/16 05:27:57;;;;;;;5.72;1.83;;;11.00;99.90;;;;;;4956781;28;20034;-66
2021/05/16 05:30:24;;;;;;;7.88;2.10;;;11.10;99.90;;;;;;4957099;28;20042;-65
2021/05/16 05:32:50;;;;;;;3.78;1.55;;;11.10;99.90;;;;;;4973511;28;20507;-65
2021/05/16 05:35:16;;;;;;;2.83;1.90;;;11.20;99.90;;;;;;4955623;28;20070;-65
2021/05/16 05:37:42;;;;;;;4.53;1.27;;;11.10;99.90;;;;;;4973832;28;20054;-65
2021/05/16 05:40:08;;;;;;;2.95;1.80;;;11.10;99.90;;;;;;4956138;28;20147;-65
2021/05/16 05:42:34;;;;;;;2.85;1.58;;;11.10;99.90;;;;;;4973052;28;20073;-64
2021/05/16 05:45:00;;;;;;;4.88;1.85;;;11.10;99.90;;;;;;4973117;28;20035;-65
2021/05/16 05:47:25;;;;;;;2.60;1.30;;;11.00;99.90;;;;;;4955647;28;20033;-64
2021/05/16 05:49:54;;;;;;;4.38;1.67;;;11.10;99.90;;;;;;4955510;28;20112;-65
2021/05/16 05:52:20;;;;;;;5.60;2.28;;;11.10;99.90;;;;;;4974120;28;20034;-65
2021/05/16 05:54:46;;;;;;;5.45;2.00;;;11.10;99.90;;;;;;4957160;28;20027;-65
2021/05/16 05:57:12;;;;;;;4.90;1.80;;;11.10;99.90;;;;;;4973566;28;20030;-76
2021/05/16 05:59:37;;;;;;;5.60;3.40;;;11.20;99.90;;;;;;4973497;28;20054;-65
2021/05/16 06:02:03;;;;;;;5.47;2.20;;;11.30;99.90;;;;;;4973476;28;20035;-64
2021/05/16 06:04:32;;;;;;;5.45;1.88;;;11.30;99.90;;;;;;4972411;28;20042;-66
2021/05/16 06:06:57;;;;;;;3.78;2.40;;;11.40;99.90;;;;;;4972846;28;20151;-66
2021/05/16 06:09:23;;;;;;;5.75;2.35;;;11.50;99.90;;;;;;4972328;28;20023;-64
2021/05/16 06:11:49;;;;;;;3.92;2.55;;;11.60;99.90;;;;;;4955115;28;20038;-65
2021/05/16 06:14:14;;;;;;;4.65;2.95;;;11.50;99.90;;;;;;4972028;28;20088;-66
2021/05/16 06:16:40;;;;;;;9.25;2.78;;;11.50;99.90;;;;;;4955407;28;20027;-65
2021/05/16 06:19:06;;;;;;;3.85;2.42;;;11.60;99.90;;;;;;4972529;28;20038;-66
2021/05/16 06:21:32;;;;;;;4.78;2.78;;;11.70;99.90;;;;;;4971137;28;20071;-65
2021/05/16 06:24:04;;;;;;;6.78;2.83;;;11.70;99.90;;;;;;4972260;28;20118;-65
2021/05/16 06:26:31;;;;;;;7.82;3.10;;;11.70;99.90;;;;;;4954352;28;20433;-64
2021/05/16 06:28:57;;;;;;;10.38;3.78;;;11.70;99.90;;;;;;4955532;28;20026;-65
2021/05/16 06:31:23;;;;;;;5.38;3.83;;;11.70;99.90;;;;;;4954017;28;20141;-65
2021/05/16 06:33:50;;;;;;;9.00;3.45;;;11.70;99.90;;;;;;4954498;28;20027;-64
2021/05/16 06:36:15;;;;;;;7.07;3.63;;;11.60;99.90;;;;;;4972701;28;20062;-66
2021/05/16 06:38:41;;;;;;;8.20;4.90;;;11.50;99.90;;;;;;4972966;28;20148;-71
2021/05/16 06:41:07;;;;;;;6.53;4.25;;;11.50;99.90;;;;;;4972007;28;20062;-65
2021/05/16 06:43:32;;;;;;;8.93;4.72;;;11.50;99.90;;;;;;4971546;28;20038;-65
2021/05/16 06:45:58;;;;;;;9.18;4.68;;;11.60;99.90;;;;;;4972043;28;20032;-65
2021/05/16 06:48:26;;;;;;;5.82;4.97;;;11.60;99.90;;;;;;4954030;28;20385;-66
2021/05/16 06:50:52;;;;;;;6.25;5.10;;;11.60;99.90;;;;;;4971781;28;20036;-65
2021/05/16 06:53:18;;;;;;;8.48;5.28;;;11.60;99.90;;;;;;4971360;28;20393;-67
2021/05/16 06:55:44;;;;;;;8.85;5.07;;;11.50;99.90;;;;;;4953977;28;20054;-65
2021/05/16 06:58:09;;;;;;;6.57;4.75;;;11.70;99.90;;;;;;4954069;28;20030;-65
2021/05/16 07:00:35;;;;;;;8.35;5.13;;;11.70;99.90;;;;;;4953633;28;20281;-64
2021/05/16 07:03:00;;;;;;;6.40;4.25;;;11.60;99.90;;;;;;4971621;28;20122;-66
2021/05/16 07:05:26;;;;;;;6.75;5.22;;;11.50;99.90;;;;;;4972308;28;20042;-66
2021/05/16 07:07:52;;;;;;;6.15;4.47;;;11.50;99.90;;;;;;4971456;28;20039;-66
2021/05/16 07:10:17;;;;;;;6.95;4.60;;;11.60;99.90;;;;;;4953510;28;20046;-65
2021/05/16 07:12:43;;;;;;;7.55;4.82;;;11.50;99.90;;;;;;4954997;28;20027;-66
2021/05/16 07:15:12;;;;;;;11.32;4.20;;;11.50;99.90;;;;;;4954761;28;20026;-64
2021/05/16 07:17:38;;;;;;;7.22;4.15;;;11.50;99.90;;;;;;4953857;28;20067;-65
2021/05/16 07:20:04;;;;;;;5.30;4.70;;;11.40;99.90;;;;;;4971679;28;20449;-65
2021/05/16 07:22:30;;;;;;;6.03;4.13;;;11.50;99.90;;;;;;4953540;28;20393;-64
2021/05/16 07:24:56;;;;;;;5.53;4.32;;;11.50;99.90;;;;;;4954005;28;20113;-65
2021/05/16 07:27:22;;;;;;;4.72;3.75;;;11.50;99.90;;;;;;4970950;28;20035;-66
2021/05/16 07:29:48;;;;;;;9.60;4.00;;;11.60;99.90;;;;;;4971137;28;20031;-66
2021/05/16 07:32:14;;;;;;;6.30;3.67;;;11.80;99.90;;;;;;4972005;28;20342;-65
2021/05/16 07:34:40;;;;;;;6.38;3.90;;;11.80;99.90;;;;;;4975185;28;20113;-65
2021/05/16 07:37:05;;;;;;;7.00;3.88;;;12.00;99.90;;;;;;4958440;28;20109;-65
2021/05/16 07:39:31;;;;;;;6.35;4.47;;;12.00;99.90;;;;;;4975503;28;20102;-65
2021/05/16 07:41:57;;;;;;;9.48;3.90;;;11.90;99.90;;;;;;4975572;28;20043;-65
2021/05/16 07:44:23;;;;;;;7.53;4.25;;;11.90;99.90;;;;;;4974625;28;20068;-65
2021/05/16 07:46:48;;;;;;;6.93;4.28;;;11.80;99.90;;;;;;4957797;28;20034;-65
2021/05/16 07:49:14;;;;;;;4.82;3.90;;;11.80;99.90;;;;;;4975626;28;20164;-65
2021/05/16 07:51:41;;;;;;;5.28;3.95;;;11.90;99.90;;;;;;4975341;28;20065;-66
2021/05/16 07:54:07;;;;;;;6.32;3.53;;;11.90;99.90;;;;;;4975056;28;20096;-64
2021/05/16 07:56:33;;;;;;;6.35;3.08;;;11.90;99.90;;;;;;4957323;28;20035;-65
2021/05/16 07:58:58;;;;;;;4.78;2.97;;;11.90;99.90;;;;;;4958506;28;20030;-65
2021/05/16 08:01:24;;;;;;;3.40;3.10;;;12.00;99.90;;;;;;4974283;28;20086;-65
2021/05/16 08:03:50;;;;;;;4.32;2.50;;;12.20;99.90;;;;;;4956985;28;20089;-66
2021/05/16 08:06:16;;;;;;;5.07;2.78;;;12.30;99.90;;;;;;4974119;28;20037;-66
2021/05/16 08:08:41;;;;;;;2.75;2.10;;;12.50;99.90;;;;;;4956378;28;20027;-66
2021/05/16 08:11:08;;;;;;;4.43;3.15;;;12.70;99.90;;;;;;4956864;28;20027;-66
2021/05/16 08:13:33;;;;;;;2.75;1.75;;;12.80;99.90;;;;;;4974086;28;20085;-66
2021/05/16 08:15:59;;;;;;;2.05;1.30;;;13.10;99.90;;;;;;4974301;28;20027;-67
2021/05/16 08:18:25;;;;;;;2.47;1.58;;;13.30;99.90;;;;;;4956400;28;20034;-67
2021/05/16 08:20:51;;;;;;;8.50;1.48;;;13.20;99.90;;;;;;4957083;28;20398;-66
2021/05/16 08:23:17;;;;;;;8.77;2.22;;;13.30;99.90;;;;;;4974432;28;20033;-66
2021/05/16 08:25:43;;;;;;;2.65;1.50;;;13.30;99.90;;;;;;4956224;28;20051;-65
2021/05/16 08:28:09;;;;;;;4.47;1.58;;;13.30;99.90;;;;;;4974218;28;20027;-66
2021/05/16 08:30:35;;;;;;;2.30;1.80;;;13.30;99.90;;;;;;4956285;28;20034;-67
2021/05/16 08:33:01;;;;;;;3.45;1.10;;;13.20;99.90;;;;;;4956183;28;20121;-65
2021/05/16 08:35:27;;;;;;;5.45;1.35;;;13.10;99.90;;;;;;4952777;29;20118;-65
2021/05/16 08:37:53;;;;;;;4.65;1.45;;;12.70;99.90;;;;;;4937850;29;20039;-63
2021/05/16 08:40:19;;;;;;;5.03;2.22;;;13.30;99.90;;;;;;4954508;29;20418;-62
2021/05/16 08:42:45;;;;;;;3.83;1.52;;;13.30;99.90;;;;;;4953994;29;20042;-62
2021/05/16 08:45:13;;;;;;;1.52;1.20;;;13.30;99.90;;;;;;4936865;29;20027;-66
2021/05/16 08:47:41;;;;;;;2.60;1.42;;;13.20;99.90;;;;;;4960803;28;20033;-66
2021/05/16 08:50:10;;;;;;;4.75;1.58;;;13.00;99.90;;;;;;4973982;28;20027;-66
2021/05/16 08:52:36;;;;;;;3.67;1.90;;;12.80;99.90;;;;;;4954916;28;20475;-65
2021/05/16 08:55:03;;;;;;;2.45;1.48;;;12.90;99.90;;;;;;4955602;28;20027;-66
2021/05/16 08:57:29;;;;;;;5.35;1.40;;;13.00;99.90;;;;;;4953102;28;20403;-66
2021/05/16 09:00:10;;;;;;;5.53;1.50;;;13.40;99.90;;;;;;4971520;28;20035;-67
2021/05/16 09:03:14;;;;;;;4.13;1.15;;;13.50;99.90;;;;;;4954183;28;20062;-65
2021/05/16 09:05:42;;;;;;;4.43;1.10;;;13.40;99.90;;;;;;4972111;28;20071;-66
2021/05/16 09:08:17;;;;;;;6.28;1.00;;;13.50;99.90;;;;;;4970378;28;20054;-66
2021/05/16 09:10:56;;;;;;;4.40;1.27;;;13.50;99.90;;;;;;4971718;28;20569;-66
2021/05/16 09:13:27;;;;;;;3.78;1.10;;;13.70;99.90;;;;;;4970541;28;20034;-79
2021/05/16 09:15:59;;;;;;;2.58;1.17;;;13.90;99.90;;;;;;4971317;28;20057;-67
2021/05/16 09:18:46;;;;;;;7.00;1.10;;;13.90;99.90;;;;;;4971561;28;20023;-67
2021/05/16 09:21:32;;;;;;;2.08;0.88;;;13.90;99.90;;;;;;4972329;28;20405;-67
2021/05/16 09:24:03;;;;;;;7.05;1.27;;;13.80;99.90;;;;;;4971750;28;20051;-66
2021/05/16 09:26:36;;;;;;;4.63;0.85;;;13.80;99.90;;;;;;4954199;28;20038;-68
2021/05/16 09:29:29;;;;;;;7.03;1.85;;;13.60;99.90;;;;;;4972670;28;20367;-66
2021/05/16 09:31:57;;;;;;;5.70;1.67;;;13.90;99.90;;;;;;4952106;28;20050;-65
2021/05/16 09:34:23;;;;;;;2.72;0.93;;;13.90;99.90;;;;;;4971732;28;20038;-79
2021/05/16 09:36:50;;;;;;;5.72;0.88;;;13.80;99.90;;;;;;4972256;28;20145;-65
2021/05/16 09:39:18;;;;;;;3.65;0.85;;;13.70;99.90;;;;;;4954654;28;20066;-66
2021/05/16 09:42:07;;;;;;;2.22;1.05;;;13.90;99.90;;;;;;4953677;28;20050;-67
2021/05/16 09:44:51;;;;;;;3.15;1.00;;;14.60;99.90;;;;;;4953228;28;20034;-70
2021/05/16 09:47:19;;;;;;;2.45;0.70;;;15.20;99.90;;;;;;4971192;28;20027;-64
2021/05/16 09:49:53;;;;;;;3.45;0.90;;;16.00;99.90;;;;;;4951785;28;20026;-63
2021/05/16 09:52:30;;;;;;;4.63;0.85;;;16.50;99.90;;;;;;4953769;28;20031;-67
2021/05/16 09:55:11;;;;;;;3.10;0.90;;;16.50;99.90;;;;;;4970206;28;20027;-65
2021/05/16 09:57:47;;;;;;;4.65;0.82;;;16.20;99.90;;;;;;4953277;28;20050;-65
2021/05/16 10:00:16;;;;;;;4.10;1.50;;;16.40;99.90;;;;;;4953645;28;20039;-65
2021/05/16 10:02:42;;;;;;;2.85;0.93;;;17.00;99.90;;;;;;4970328;28;20459;-66
2021/05/16 10:05:11;;;;;;;2.88;1.30;;;17.40;99.90;;;;;;4953100;28;20026;-46
2021/05/16 10:07:38;;;;;;;8.13;1.05;;;17.80;99.90;;;;;;4969871;28;20118;-66
2021/05/16 10:10:07;;;;;;;2.28;0.60;;;17.90;99.90;;;;;;4953469;28;20129;-67
2021/05/16 10:12:33;;;;;;;2.72;0.68;;;16.90;99.90;;;;;;4952482;28;20100;-68
2021/05/16 10:15:19;;;;;;;3.95;0.68;;;16.30;99.90;;;;;;4969751;28;20062;-68
2021/05/16 10:18:20;;;;;;;2.65;1.08;;;15.80;99.90;;;;;;5126604;27;20728;-69
2021/05/16 10:20:45;;;;;;;2.65;0.70;;;15.90;99.90;;;;;;5125314;27;20114;-68
2021/05/16 10:23:11;;;;;;;1.33;0.75;;;16.20;99.90;;;;;;5124993;28;20114;-70
2021/05/16 10:25:45;;;;;;;3.70;1.08;;;16.60;99.90;;;;;;5123905;27;20031;-67
2021/05/16 10:28:15;;;;;;;3.83;0.63;;;17.60;99.90;;;;;;5124729;28;20471;-68
2021/05/16 10:31:02;;;;;;;6.07;0.85;;;18.10;99.90;;;;;;5124155;28;20035;-67
2021/05/16 10:33:36;;;;;;;4.43;1.15;;;18.20;99.90;;;;;;5119349;28;20049;-67
2021/05/16 10:36:03;;;;;;;2.83;0.60;;;18.00;99.90;;;;;;5123211;28;20019;-70
2021/05/16 10:38:33;;;;;;;5.60;0.60;;;17.40;99.90;;;;;;5123330;28;20130;-68
2021/05/16 10:41:28;;;;;;;3.22;0.95;;;17.40;99.90;;;;;;5124985;28;20490;-69
2021/05/16 10:44:29;;;;;;;5.13;0.70;;;17.40;99.90;;;;;;5106597;28;20047;-68
2021/05/16 10:46:55;;;;;;;2.58;0.90;;;17.20;99.90;;;;;;5125993;27;20114;-68
2021/05/16 10:49:31;;;;;;;3.00;0.57;;;17.30;99.90;;;;;;5123552;28;20138;-67
2021/05/16 10:51:56;;;;;;;5.00;1.33;;;17.60;99.90;;;;;;5105181;28;20020;-68
2021/05/16 10:54:34;;;;;;;8.45;2.63;;;18.10;99.90;;;;;;5125389;27;20095;-67
2021/05/16 10:57:10;;;;;;;4.68;0.80;;;18.10;99.00;;;;;;5124041;28;20440;-68
2021/05/16 10:59:38;;;;;;;2.15;0.80;;;17.80;98.30;;;;;;5122273;28;20084;-67
2021/05/16 11:02:04;;;;;;;2.88;0.75;;;17.50;98.00;;;;;;5125908;28;20081;-69
2021/05/16 11:04:50;;;;;;;2.08;0.90;;;17.60;99.30;;;;;;5120838;28;20087;-67
2021/05/16 11:07:35;;;;;;;3.25;0.88;;;18.30;99.80;;;;;;5124312;28;20035;-69
2021/05/16 11:10:29;;;;;;;3.88;1.10;;;18.50;99.80;;;;;;5124548;28;20019;-67
2021/05/16 11:13:12;;;;;;;3.28;0.90;;;18.50;98.40;;;;;;5125233;28;20026;-69
2021/05/16 11:15:46;;;;;;;2.05;1.13;;;18.60;99.30;;;;;;5122847;28;20542;-67
2021/05/16 11:18:16;;;;;;;2.50;0.63;;;18.30;98.60;;;;;;5123179;28;20063;-72
2021/05/16 11:20:43;;;;;;;3.75;0.70;;;18.20;97.90;;;;;;5121847;28;20039;-70
2021/05/16 11:23:08;;;;;;;2.30;0.63;;;18.10;97.80;;;;;;5124209;27;20032;-68
2021/05/16 11:25:34;;;;;;;4.05;1.27;;;18.20;97.60;;;;;;5121856;28;20038;-68
2021/05/16 11:28:09;;;;;;;5.32;0.70;;;18.80;96.90;;;;;;5119414;27;20180;-67
2021/05/16 11:30:35;;;;;;;4.95;0.98;;;18.60;94.40;;;;;;5107845;28;20030;-67
2021/05/16 11:33:01;;;;;;;2.92;0.70;;;18.40;94.30;;;;;;5109079;28;20353;-67
2021/05/16 11:35:26;;;;;;;4.45;0.57;;;18.40;93.00;;;;;;5110071;28;20034;-75
2021/05/16 11:37:56;;;;;;;3.47;0.65;;;18.20;93.20;;;;;;5109313;28;20112;-67
2021/05/16 11:40:34;;;;;;;2.80;0.82;;;18.10;93.40;;;;;;5108716;28;20114;-68
2021/05/16 11:43:01;;;;;;;2.85;0.60;;;18.00;93.10;;;;;;5088645;28;20269;-68
2021/05/16 11:45:29;;;;;;;3.00;1.13;;;17.90;93.40;;;;;;5088238;28;20356;-76
2021/05/16 11:47:55;;;;;;;7.95;1.20;;;17.80;93.20;;;;;;5090382;28;20040;-71
2021/05/16 11:50:43;;;;;;;3.65;0.57;;;17.70;93.50;;;;;;5093767;28;20032;-68
2021/05/16 11:53:09;;;;;;;3.20;0.30;;;18.30;92.00;;;;;;5110552;28;20047;-70
2021/05/16 11:55:35;;;;;;;4.32;0.65;;;18.40;91.90;;;;;;5108078;28;20031;-67
2021/05/16 11:58:01;;;;;;;4.63;0.77;;;18.70;91.20;;;;;;5107369;28;20035;-71
2021/05/16 12:00:30;;;;;;;2.58;0.40;;;18.70;90.30;;;;;;5108630;28;20031;-67
2021/05/16 12:03:15;;;;;;;3.25;0.40;;;18.80;89.20;;;;;;5111057;28;20465;-66
2021/05/16 12:05:43;;;;;;;2.75;0.85;;;18.90;88.60;;;;;;5109714;28;20516;-68
2021/05/16 12:08:20;;;;;;;1.92;0.50;;;18.90;88.40;;;;;;5108184;28;20034;-66
2021/05/16 12:11:02;;;;;;;1.30;0.45;;;18.60;87.40;;;;;;5107779;28;20423;-66
2021/05/16 12:13:28;;;;;;;3.78;0.60;;;18.40;87.60;;;;;;5109848;28;20100;-76
2021/05/16 12:15:54;;;;;;;1.50;0.47;;;18.40;87.50;;;;;;5108566;28;20020;-67
2021/05/16 12:18:21;;;;;;;2.83;0.70;;;18.70;88.10;;;;;;5108431;28;20031;-69
2021/05/16 12:20:58;;;;;;;3.03;0.65;;;18.40;86.00;;;;;;5107758;28;20522;-68
2021/05/16 12:23:24;;;;;;;1.83;0.43;;;18.50;88.60;;;;;;5107652;28;20050;-71
2021/05/16 12:25:49;;;;;;;3.95;0.85;;;18.40;87.10;;;;;;5108027;28;20110;-67
2021/05/16 12:28:15;;;;;;;4.47;0.65;;;18.20;89.30;;;;;;5105154;28;20027;-66
2021/05/16 12:30:44;;;;;;;4.07;0.52;;;18.20;90.00;;;;;;5106515;28;20484;-72
2021/05/16 12:33:09;;;;;;;5.68;0.55;;;18.40;89.90;;;;;;5106349;28;20038;-71
2021/05/16 12:35:36;;;;;;;5.15;0.75;;;18.90;88.70;;;;;;5107408;28;20359;-66
2021/05/16 12:38:12;;;;;;;2.33;0.80;;;19.50;89.00;;;;;;5108988;28;20027;-66
2021/05/16 12:40:38;;;;;;;3.90;1.02;;;20.40;88.90;;;;;;5096465;28;20039;-66
2021/05/16 12:43:06;;;;;;;2.42;0.93;;;20.70;87.50;;;;;;5101184;28;20659;-67
2021/05/16 12:45:31;;;;;;;3.80;0.90;;;20.60;85.50;;;;;;5107063;28;20064;-66
2021/05/16 12:48:21;;;;;;;9.18;1.30;;;20.20;85.80;;;;;;5103631;28;20035;-67
2021/05/16 12:50:56;;;;;;;5.03;0.73;;;20.10;87.30;;;;;;5105482;28;20067;-67
2021/05/16 12:53:24;;;;;;;2.90;0.68;;;19.70;90.00;;;;;;5106954;28;20114;-68